EDLW/DTM METAR and TAF weather

Enter ICAO airport designator
Station Type Date Time Source
EDLW METAR 2018/12/10 20:50 UTC NOAA

EDLW 102050Z 27009KT 250V330 9999 -RA FEW010 SCT017 BKN023 04/02 Q1021


Station Type Date Time Source
EDLW Decoded METAR 2018/12/10 20:50 UTC NOAA

Dortmund / Wickede, Germany (EDLW) 51-31N 007-37E
Dec 10, 2018 - 03:50 PM EST / 2018.12.10 2050 UTC
Wind: from the W (270 degrees) at 10 MPH (9 KT) (direction variable):0
Visibility: greater than 7 mile(s):0
Sky conditions: mostly cloudy
Weather: light rain
Temperature: 39 F (4 C)
Dew Point: 35 F (2 C)
Relative Humidity: 86%
Pressure (altimeter): 30.15 in. Hg (1021 hPa)
ob: EDLW 102050Z 27009KT 250V330 9999 -RA FEW010 SCT017 BKN023 04/02 Q1021
cycle: 21

Station Type Date Time Source
EDLW TAF 2018/12/10 18:27 UTC NOAA

TAF EDLW 101700Z 1018/1118 27010KT 9999 SCT025 PROB40
TEMPO 1102/1108 BKN010
BECMG 1112/1115 30005KT


Example: see airport list